Time;durP1;ratioP1;P1;durP2;ratioP2;P2;SDS_P1;SDS_P2;PMS_P1;PMS_P2;Temp;Humidity;BMP_temperature;BMP_pressure;BME280_temperature;BME280_humidity;BME280_pressure;Samples;Min_cycle;Max_cycle;Signal;HPM_P1;HPM_P2
2021/09/27 00:01:43;;;;;;;15.40;9.73;;;;;;;10.72;85.10;98109.85;1757335;82;21024;-85
2021/09/27 00:04:11;;;;;;;15.53;10.23;;;;;;;10.70;84.60;98104.59;1737616;82;20967;-85
2021/09/27 00:06:37;;;;;;;15.25;10.48;;;;;;;10.68;83.87;98099.33;1766874;81;20987;-86
2021/09/27 00:09:04;;;;;;;14.73;10.88;;;;;;;10.66;84.08;98090.56;1765171;81;21011;-86
2021/09/27 00:11:31;;;;;;;15.18;10.68;;;;;;;10.62;83.74;98091.55;1751848;80;21457;-86
2021/09/27 00:14:02;;;;;;;14.83;9.95;;;;;;;10.56;84.15;98084.63;1760686;79;20972;-87
2021/09/27 00:16:30;;;;;;;12.75;9.85;;;;;;;10.51;83.97;98081.72;1766970;81;21369;-86
2021/09/27 00:18:58;;;;;;;16.55;10.05;;;;;;;10.48;83.83;98081.35;1766880;81;21030;-87
2021/09/27 00:21:32;;;;;;;15.35;9.33;;;;;;;10.46;84.27;98085.81;1766775;81;21031;-86
2021/09/27 00:24:00;;;;;;;12.93;9.13;;;;;;;10.41;84.52;98078.41;1768245;81;21412;-86
2021/09/27 00:26:29;;;;;;;13.65;8.90;;;;;;;10.38;84.13;98082.02;1775545;81;21392;-86
2021/09/27 00:28:56;;;;;;;12.37;9.03;;;;;;;10.33;85.46;98089.70;1775535;81;21046;-87
2021/09/27 00:31:23;;;;;;;15.93;9.60;;;;;;;10.29;84.02;98076.96;1773529;81;21295;-85
2021/09/27 00:33:50;;;;;;;11.30;8.80;;;;;;;10.26;84.78;98075.74;1760082;81;20986;-87
2021/09/27 00:36:17;;;;;;;14.80;8.90;;;;;;;10.25;85.15;98072.21;1764199;81;21004;-87
2021/09/27 00:38:44;;;;;;;14.78;9.13;;;;;;;10.20;85.00;98075.88;1765274;81;21059;-86
2021/09/27 00:41:16;;;;;;;11.70;8.93;;;;;;;10.14;84.42;98075.14;1764092;81;21442;-87
2021/09/27 00:43:43;;;;;;;12.60;8.88;;;;;;;10.10;86.02;98074.83;1770973;81;20987;-87
2021/09/27 00:46:15;;;;;;;11.80;9.15;;;;;;;10.04;85.56;98078.50;1744694;80;20990;-87
2021/09/27 00:48:42;;;;;;;14.50;9.48;;;;;;;10.03;85.07;98062.64;1744849;82;21030;-87
2021/09/27 00:51:29;;;;;;;13.48;8.68;;;;;;;9.99;85.48;98064.52;1744905;82;21014;-87
2021/09/27 00:54:04;;;;;;;12.90;8.38;;;;;;;10.02;85.07;98070.19;1762192;80;21053;-87
2021/09/27 00:56:36;;;;;;;15.25;8.38;;;;;;;10.05;85.00;98074.05;1746088;81;21108;-87
2021/09/27 00:59:04;;;;;;;11.20;7.83;;;;;;;10.08;85.39;98078.43;1745001;82;21030;-87
2021/09/27 01:01:31;;;;;;;10.98;8.55;;;;;;;10.08;85.13;98060.74;1744783;82;20998;-87
2021/09/27 01:03:58;;;;;;;12.10;8.60;;;;;;;10.08;85.55;98068.69;1774257;81;21021;-87
2021/09/27 01:06:45;;;;;;;12.55;8.73;;;;;;;10.14;85.87;98059.25;1760019;81;20989;-87
2021/09/27 01:09:39;;;;;;;13.05;9.13;;;;;;;10.15;86.66;98064.98;1744835;82;21022;-87
2021/09/27 01:12:23;;;;;;;11.63;8.53;;;;;;;10.14;86.26;98061.89;1749958;81;21330;-87
2021/09/27 01:15:16;;;;;;;11.85;8.78;;;;;;;10.17;86.44;98060.50;1775392;81;21412;-86
2021/09/27 01:17:51;;;;;;;12.35;9.18;;;;;;;10.16;86.46;98055.23;1765649;81;21021;-87
2021/09/27 01:21:09;;;;;;;12.70;9.00;;;;;;;10.19;86.83;98054.29;1743951;82;21456;-87
2021/09/27 01:24:26;;;;;;;13.00;8.88;;;;;;;10.22;86.78;98051.56;1768704;81;20936;-87
2021/09/27 01:27:16;;;;;;;11.08;8.85;;;;;;;10.24;87.25;98037.38;1774629;80;20995;-87
2021/09/27 01:30:21;;;;;;;12.93;8.80;;;;;;;10.26;86.37;98041.30;1768435;81;20959;-87
2021/09/27 01:32:58;;;;;;;13.80;9.45;;;;;;;10.24;85.53;98034.72;1672822;84;20968;-87
2021/09/27 01:36:05;;;;;;;11.60;8.90;;;;;;;10.20;85.85;98034.39;1758295;80;21058;-87
2021/09/27 01:38:49;;;;;;;12.78;9.13;;;;;;;10.16;85.31;98030.08;1761188;81;20978;-87
2021/09/27 01:41:46;;;;;;;15.10;9.43;;;;;;;10.04;85.29;98025.55;1757803;81;21142;-87
2021/09/27 01:44:27;;;;;;;12.65;9.55;;;;;;;9.97;85.30;98025.28;1765261;81;21008;-87
2021/09/27 01:47:05;;;;;;;13.85;9.10;;;;;;;9.88;85.13;98019.78;1765029;81;21010;-87
2021/09/27 01:49:37;;;;;;;14.00;9.10;;;;;;;9.82;85.05;98019.06;1764533;81;21067;-87
2021/09/27 01:52:21;;;;;;;15.13;9.30;;;;;;;9.78;85.22;98026.23;1739940;81;21023;-87
2021/09/27 01:54:51;;;;;;;13.72;9.40;;;;;;;9.72;84.99;98017.13;1756826;81;21031;-87
2021/09/27 01:57:38;;;;;;;12.45;9.35;;;;;;;9.65;84.93;98021.70;1765243;81;21003;-87
2021/09/27 02:00:16;;;;;;;14.20;10.08;;;;;;;9.58;85.46;98020.98;1765277;81;21429;-87
2021/09/27 02:03:06;;;;;;;16.12;9.30;;;;;;;9.51;84.99;98017.63;1704158;84;20980;-87
2021/09/27 02:05:58;;;;;;;12.10;8.70;;;;;;;9.46;85.13;98006.73;1709909;81;21024;-87
2021/09/27 02:08:56;;;;;;;15.50;9.83;;;;;;;9.42;86.08;97993.19;1765343;81;21362;-87
2021/09/27 02:11:31;;;;;;;14.83;10.72;;;;;;;9.37;85.19;97994.17;1749301;80;20941;-87
2021/09/27 02:14:27;;;;;;;15.48;10.43;;;;;;;9.32;85.11;97989.45;1735171;80;21016;-87
2021/09/27 02:17:23;;;;;;;14.73;9.65;;;;;;;9.25;86.82;97991.81;1734959;82;21007;-87
2021/09/27 02:20:31;;;;;;;15.30;9.75;;;;;;;9.22;87.87;98002.48;1734921;82;21004;-87
2021/09/27 02:23:21;;;;;;;14.98;9.83;;;;;;;9.18;88.33;98004.78;1691988;83;20972;-87
2021/09/27 02:25:49;;;;;;;12.93;9.58;;;;;;;9.15;86.70;98002.20;1760184;81;21024;-87
2021/09/27 02:28:23;;;;;;;15.05;10.98;;;;;;;9.15;86.22;98000.44;1765717;81;21008;-87
2021/09/27 02:31:21;;;;;;;14.93;10.35;;;;;;;9.13;86.11;97995.62;1757335;81;20987;-87
2021/09/27 02:34:01;;;;;;;13.18;10.10;;;;;;;9.08;86.11;97987.81;1735222;82;21441;-87
2021/09/27 02:36:52;;;;;;;16.17;10.23;;;;;;;9.06;85.80;97986.11;1750905;80;20968;-87
2021/09/27 02:39:48;;;;;;;15.23;10.80;;;;;;;9.02;86.13;97985.76;1749624;82;20992;-87
2021/09/27 02:42:29;;;;;;;12.18;9.70;;;;;;;8.97;86.56;97989.37;1725238;82;21437;-86
2021/09/27 02:44:55;;;;;;;18.52;10.48;;;;;;;8.97;86.33;97992.48;1706050;82;21012;-87
2021/09/27 02:47:27;;;;;;;17.10;10.88;;;;;;;8.97;85.85;97991.16;1721508;82;21043;-86
2021/09/27 02:49:57;;;;;;;15.72;10.65;;;;;;;8.96;86.12;97986.76;1717096;84;21037;-87
2021/09/27 02:52:23;;;;;;;17.05;10.85;;;;;;;8.94;86.13;97996.52;1774855;80;21041;-87
2021/09/27 02:55:13;;;;;;;15.40;9.73;;;;;;;8.93;87.96;98002.70;1767730;81;20978;-87
2021/09/27 02:57:57;;;;;;;12.88;9.50;;;;;;;8.95;86.57;98000.45;1747813;82;21005;-87
2021/09/27 03:00:49;;;;;;;13.55;9.40;;;;;;;8.96;87.91;98003.94;1748889;81;21050;-86
2021/09/27 03:03:40;;;;;;;12.43;8.83;;;;;;;8.97;86.67;97996.45;1718021;83;21041;-86
2021/09/27 03:06:45;;;;;;;13.28;9.30;;;;;;;9.01;86.84;97997.24;1722167;81;21014;-87
2021/09/27 03:09:45;;;;;;;15.78;8.98;;;;;;;9.02;86.72;97997.21;1747318;82;21105;-86
2021/09/27 03:12:49;;;;;;;11.55;8.63;;;;;;;9.06;87.76;97988.75;1677693;84;21028;-87
2021/09/27 03:15:27;;;;;;;10.65;8.23;;;;;;;9.08;87.71;97987.81;1753475;82;22109;-86
2021/09/27 03:18:17;;;;;;;10.18;7.20;;;;;;;9.09;87.38;97985.58;1753065;82;21714;-87
2021/09/27 03:21:03;;;;;;;12.95;8.10;;;;;;;9.06;88.01;97986.95;1716044;81;20986;-86
2021/09/27 03:24:19;;;;;;;10.98;8.05;;;;;;;9.08;87.73;97982.96;1766784;81;20955;-87
2021/09/27 03:26:52;;;;;;;;;;;;;;;9.11;87.86;97982.42;1769636;81;21063;-86
2021/09/27 03:29:42;;;;;;;11.53;7.47;;;;;;;9.13;87.87;97989.48;1767268;81;20101;-87
2021/09/27 03:32:55;;;;;;;10.53;7.15;;;;;;;9.11;87.49;97985.07;1727747;81;20974;-87
2021/09/27 03:35:43;;;;;;;15.23;8.10;;;;;;;9.06;87.43;97984.31;1783523;80;20992;-87
2021/09/27 03:38:39;;;;;;;13.48;7.67;;;;;;;9.10;87.63;97985.13;1784552;80;20960;-86
2021/09/27 03:41:42;;;;;;;11.73;7.95;;;;;;;9.14;87.66;97988.56;1769657;80;21051;-87
2021/09/27 03:44:32;;;;;;;12.45;7.72;;;;;;;9.08;88.68;97978.55;1747324;81;21022;-86
2021/09/27 03:47:22;;;;;;;11.00;7.85;;;;;;;9.04;87.44;97987.90;1746475;81;21447;-86
2021/09/27 03:50:09;;;;;;;11.22;8.35;;;;;;;9.01;87.04;97989.31;1737499;83;21007;-86
2021/09/27 03:52:50;;;;;;;14.20;9.15;;;;;;;8.98;86.84;97987.14;1763867;81;21014;-87
2021/09/27 03:55:25;;;;;;;13.88;9.35;;;;;;;8.94;86.60;98002.68;1767896;81;21082;-86
2021/09/27 03:58:27;;;;;;;12.93;9.18;;;;;;;8.81;87.83;97999.42;1767934;81;21440;-86
2021/09/27 04:01:11;;;;;;;12.15;8.58;;;;;;;8.74;86.91;97998.27;1758475;81;20977;-86
2021/09/27 04:04:04;;;;;;;12.47;8.68;;;;;;;8.70;86.43;97990.87;1717142;82;21029;-87
2021/09/27 04:06:42;;;;;;;13.22;9.38;;;;;;;8.65;86.39;97987.02;1712819;83;21063;-86
2021/09/27 04:09:44;;;;;;;13.18;9.00;;;;;;;8.60;87.07;97994.62;1716098;83;20985;-87
2021/09/27 04:12:28;;;;;;;12.95;8.95;;;;;;;8.54;86.33;97989.00;1720835;82;20972;-86
2021/09/27 04:15:39;;;;;;;13.48;8.90;;;;;;;8.41;87.40;97985.73;1693284;85;21405;-87
2021/09/27 04:18:34;;;;;;;14.58;9.45;;;;;;;8.40;87.29;97989.27;1716736;84;21089;-87
2021/09/27 04:21:21;;;;;;;12.10;9.28;;;;;;;8.36;87.22;97987.16;1729367;81;21381;-87
2021/09/27 04:24:04;;;;;;;13.30;10.08;;;;;;;8.36;87.28;97988.48;1777255;81;21095;-87
2021/09/27 04:26:56;;;;;;;13.85;9.48;;;;;;;8.35;86.89;97986.71;1749449;81;21022;-87
2021/09/27 04:29:53;;;;;;;14.15;9.33;;;;;;;8.34;87.05;97989.41;1753357;82;20994;-87
2021/09/27 04:32:31;;;;;;;20.32;12.28;;;;;;;8.29;86.66;97982.45;1775892;80;20966;-87
2021/09/27 04:35:33;;;;;;;13.85;9.65;;;;;;;8.28;87.13;97987.31;1784187;80;20990;-87
2021/09/27 04:38:04;;;;;;;15.20;9.80;;;;;;;8.28;87.14;97967.52;1759864;80;20994;-87
2021/09/27 04:41:11;;;;;;;13.15;9.60;;;;;;;8.30;86.69;97974.05;1754815;80;21430;-87
2021/09/27 04:43:49;;;;;;;19.65;11.25;;;;;;;8.28;86.68;97986.00;1723886;83;21415;-87
2021/09/27 04:46:37;;;;;;;17.90;10.85;;;;;;;8.30;86.93;97997.82;1723476;83;21006;-86
2021/09/27 04:49:26;;;;;;;16.10;9.93;;;;;;;8.27;87.40;97997.44;1729138;81;20996;-87
2021/09/27 04:52:23;;;;;;;16.27;10.50;;;;;;;8.29;87.21;98005.33;1736810;82;21015;-87
2021/09/27 04:55:16;;;;;;;17.80;10.25;;;;;;;8.31;87.97;98003.08;1753200;82;21059;-85
2021/09/27 04:58:21;;;;;;;18.87;10.08;;;;;;;8.32;87.50;98010.09;1751214;81;20984;-87
2021/09/27 05:01:18;;;;;;;18.90;10.23;;;;;;;8.36;87.87;98010.05;1762077;80;21000;-87
2021/09/27 05:04:05;;;;;;;19.30;11.15;;;;;;;8.39;87.78;98012.63;1768959;80;20987;-87
2021/09/27 05:06:55;;;;;;;17.48;9.88;;;;;;;8.43;87.49;98010.35;1777631;81;21065;-87
2021/09/27 05:09:55;;;;;;;14.80;9.95;;;;;;;8.50;87.85;98012.38;1747975;81;21029;-88
2021/09/27 05:12:36;;;;;;;13.72;8.80;;;;;;;8.55;87.18;98011.87;1747713;82;21041;-87
2021/09/27 05:15:52;;;;;;;12.70;8.78;;;;;;;8.65;87.62;98001.98;1747922;82;21412;-87
2021/09/27 05:18:36;;;;;;;12.88;8.83;;;;;;;8.71;87.94;97997.89;1774102;81;21407;-87
2021/09/27 05:21:37;;;;;;;13.03;8.45;;;;;;;8.80;88.00;97996.83;1750021;81;21427;-87
2021/09/27 05:24:15;;;;;;;13.35;8.85;;;;;;;8.87;87.73;97988.28;1747837;82;21010;-87
2021/09/27 05:27:04;;;;;;;13.35;7.92;;;;;;;8.97;87.88;97981.44;1748955;81;21451;-88
2021/09/27 05:29:53;;;;;;;17.12;8.05;;;;;;;9.05;87.89;97981.73;1746229;82;21017;-88
2021/09/27 05:32:28;;;;;;;17.48;7.75;;;;;;;9.15;88.07;97979.28;1747427;81;21065;-88
2021/09/27 05:35:09;;;;;;;14.33;8.23;;;;;;;9.22;87.60;97979.53;1750502;80;21024;-87
2021/09/27 05:37:59;;;;;;;15.45;8.93;;;;;;;9.29;87.69;97983.34;1750900;82;21043;-87
2021/09/27 05:40:49;;;;;;;15.00;9.65;;;;;;;9.33;87.77;97976.63;1756946;81;21036;-87
2021/09/27 05:43:59;;;;;;;15.70;9.10;;;;;;;9.44;87.87;97982.98;1766141;80;21484;-87
2021/09/27 05:46:48;;;;;;;14.83;9.98;;;;;;;9.54;87.74;97995.52;1755920;81;21000;-86
2021/09/27 05:49:28;;;;;;;14.40;9.78;;;;;;;9.62;87.41;97994.88;1749106;80;21431;-86
2021/09/27 05:52:06;;;;;;;20.65;10.13;;;;;;;9.68;87.49;97991.65;1753327;82;21065;-87
2021/09/27 05:54:47;;;;;;;13.93;9.05;;;;;;;9.72;87.19;97991.98;1767714;81;21015;-85
2021/09/27 05:57:31;;;;;;;20.70;9.75;;;;;;;9.76;87.45;97997.63;1748596;82;21359;-85
2021/09/27 06:00:25;;;;;;;41.20;24.87;;;;;;;9.80;87.24;97999.25;1750270;81;21072;-85
2021/09/27 06:03:18;;;;;;;24.15;12.35;;;;;;;9.80;88.20;98001.05;1750431;81;21053;-86
2021/09/27 06:05:56;;;;;;;15.83;10.78;;;;;;;9.84;87.72;98006.68;1748015;81;21139;-86
2021/09/27 06:08:43;;;;;;;15.63;10.68;;;;;;;9.88;87.63;98010.52;1708312;84;21014;-86
2021/09/27 06:11:21;;;;;;;17.67;10.80;;;;;;;9.93;87.70;98005.56;1732119;83;21002;-86
2021/09/27 06:13:50;;;;;;;18.95;11.93;;;;;;;9.97;87.33;98006.74;1753582;82;21398;-87
2021/09/27 06:16:56;;;;;;;19.27;11.83;;;;;;;10.03;87.62;97994.69;1758567;81;21008;-86
2021/09/27 06:19:43;;;;;;;20.97;13.15;;;;;;;10.09;87.49;97998.92;1760869;80;21004;-86
2021/09/27 06:22:26;;;;;;;20.25;13.40;;;;;;;10.16;88.13;97999.62;1760506;80;20981;-86
2021/09/27 06:25:27;;;;;;;18.23;12.70;;;;;;;10.24;87.94;97991.47;1759821;81;21403;-86
2021/09/27 06:28:27;;;;;;;21.97;13.35;;;;;;;10.33;87.41;97987.23;1723507;83;21045;-85
2021/09/27 06:31:12;;;;;;;21.82;13.40;;;;;;;10.40;87.11;97979.53;1733205;81;21009;-85
2021/09/27 06:34:01;;;;;;;20.85;13.55;;;;;;;10.49;87.22;97988.14;1770815;81;20996;-86
2021/09/27 06:36:32;;;;;;;20.92;14.75;;;;;;;10.56;87.03;97988.38;1739277;82;21061;-87
2021/09/27 06:39:03;;;;;;;18.45;12.88;;;;;;;10.66;87.54;97982.34;1748684;82;20972;-86
2021/09/27 06:41:34;;;;;;;25.88;15.80;;;;;;;10.75;87.18;97979.88;1772033;81;20992;-86
2021/09/27 06:44:00;;;;;;;26.73;15.55;;;;;;;10.82;88.16;97989.37;1755231;81;20970;-87
2021/09/27 06:46:27;;;;;;;25.15;16.42;;;;;;;10.91;87.39;97977.16;1753601;82;20966;-86
2021/09/27 06:48:53;;;;;;;28.50;17.50;;;;;;;11.01;87.32;97975.55;1781942;79;20952;-87
2021/09/27 06:51:20;;;;;;;28.83;17.25;;;;;;;11.11;87.98;97980.08;1775477;81;21010;-87
2021/09/27 06:53:46;;;;;;;26.37;19.05;;;;;;;11.20;87.79;97982.44;1752964;81;21045;-87
2021/09/27 06:56:13;;;;;;;29.32;19.67;;;;;;;11.32;86.97;97986.48;1753089;82;20999;-87
2021/09/27 06:58:40;;;;;;;30.62;20.05;;;;;;;11.43;87.02;97984.81;1736730;83;21042;-87
2021/09/27 07:01:06;;;;;;;27.20;17.48;;;;;;;11.54;86.78;97976.50;1753034;81;20989;-87
2021/09/27 07:03:33;;;;;;;25.95;17.42;;;;;;;11.66;86.58;97980.53;1780192;80;21414;-87
2021/09/27 07:06:00;;;;;;;24.75;16.15;;;;;;;11.79;86.78;97978.31;1781705;80;20992;-87
2021/09/27 07:08:26;;;;;;;22.13;15.13;;;;;;;11.88;86.57;97976.19;1781701;80;20988;-87
2021/09/27 07:10:54;;;;;;;18.82;14.68;;;;;;;11.99;86.80;97984.23;1767529;80;21000;-87
2021/09/27 07:13:22;;;;;;;20.43;14.03;;;;;;;12.10;86.76;97979.45;1746742;82;20962;-87
2021/09/27 07:15:50;;;;;;;19.73;13.58;;;;;;;12.21;86.63;97969.74;1753059;82;21410;-87
2021/09/27 07:18:16;;;;;;;19.77;13.32;;;;;;;12.31;86.19;97968.95;1746776;82;21353;-87
2021/09/27 07:20:43;;;;;;;19.40;14.20;;;;;;;12.41;86.30;97973.00;1765595;80;20965;-87
2021/09/27 07:23:10;;;;;;;19.80;13.35;;;;;;;12.52;86.31;97967.73;1757177;82;20965;-86
2021/09/27 07:25:37;;;;;;;26.27;13.75;;;;;;;12.66;86.60;97967.20;1757168;81;21032;-87
2021/09/27 07:28:04;;;;;;;23.20;14.60;;;;;;;12.80;85.88;97967.53;1757197;81;20999;-87
2021/09/27 07:30:33;;;;;;;15.60;12.93;;;;;;;12.93;85.85;97961.74;1757044;82;20985;-86
2021/09/27 07:33:00;;;;;;;19.85;13.35;;;;;;;13.05;85.61;97947.93;1749855;81;21002;-86
2021/09/27 07:35:30;;;;;;;22.95;13.43;;;;;;;13.19;85.34;97951.83;1755232;80;21124;-88
2021/09/27 07:37:57;;;;;;;19.90;13.53;;;;;;;13.33;85.24;97944.63;1777391;81;21002;-87
2021/09/27 07:40:29;;;;;;;20.77;13.62;;;;;;;13.45;85.15;97937.45;1777520;81;21014;-87
2021/09/27 07:42:56;;;;;;;21.90;14.90;;;;;;;13.59;84.79;97941.36;1778485;81;20978;-87
2021/09/27 07:45:25;;;;;;;17.07;13.55;;;;;;;13.73;84.72;97939.42;1764109;80;21478;-86
2021/09/27 07:47:53;;;;;;;21.95;14.00;;;;;;;13.86;84.50;97940.63;1753416;80;21004;-87
2021/09/27 07:50:21;;;;;;;20.48;14.33;;;;;;;14.00;84.54;97944.48;1750599;81;21122;-87
2021/09/27 07:52:49;;;;;;;18.55;14.53;;;;;;;14.13;84.21;97933.65;1736570;82;21031;-87
2021/09/27 07:55:16;;;;;;;21.37;14.73;;;;;;;14.26;83.20;97943.77;1750430;82;21047;-87
2021/09/27 07:57:43;;;;;;;21.30;14.68;;;;;;;14.42;83.85;97941.73;1765518;80;20956;-87
2021/09/27 08:00:12;;;;;;;24.45;14.83;;;;;;;14.54;82.12;97942.51;1781637;80;21059;-86
2021/09/27 08:02:40;;;;;;;24.98;15.13;;;;;;;14.63;82.20;97939.87;1781680;80;21011;-87
2021/09/27 08:05:11;;;;;;;23.30;14.78;;;;;;;14.72;82.42;97938.10;1780333;80;20991;-88
2021/09/27 08:07:37;;;;;;;19.12;12.95;;;;;;;14.83;82.14;97935.42;1766939;81;21440;-86
2021/09/27 08:10:07;;;;;;;20.88;13.60;;;;;;;14.93;81.88;97935.83;1748189;81;21021;-87
2021/09/27 08:12:36;;;;;;;18.98;12.85;;;;;;;15.02;81.45;97930.05;1750651;82;21006;-87
2021/09/27 08:15:05;;;;;;;16.55;12.05;;;;;;;15.13;81.43;97927.73;1750545;82;21063;-87
2021/09/27 08:17:32;;;;;;;19.57;11.95;;;;;;;15.23;81.21;97929.46;1720611;83;21043;-87
2021/09/27 08:20:01;;;;;;;22.15;12.95;;;;;;;15.35;80.97;97927.98;1737902;82;21472;-88
2021/09/27 08:22:30;;;;;;;17.90;12.65;;;;;;;15.48;80.55;97919.37;1750661;82;21015;-88
2021/09/27 08:24:56;;;;;;;18.42;11.45;;;;;;;15.58;80.12;97924.14;1781781;80;21094;-88
2021/09/27 08:27:23;;;;;;;16.15;12.03;;;;;;;15.70;80.24;97921.31;1757491;81;21012;-87
2021/09/27 08:29:50;;;;;;;16.95;11.50;;;;;;;15.79;80.19;97911.09;1749408;82;21484;-87
2021/09/27 08:32:16;;;;;;;21.20;11.97;;;;;;;15.89;79.83;97916.34;1707433;84;21048;-88
2021/09/27 08:34:43;;;;;;;14.93;10.05;;;;;;;15.99;78.97;97907.88;1750596;80;20957;-88
2021/09/27 08:37:11;;;;;;;14.23;10.05;;;;;;;16.09;78.64;97903.76;1736715;83;21428;-87
2021/09/27 08:39:37;;;;;;;13.78;10.25;;;;;;;16.21;78.45;97896.89;1750987;82;21033;-87
2021/09/27 08:42:18;;;;;;;16.48;9.65;;;;;;;16.35;78.06;97902.34;1736676;83;20991;-87
2021/09/27 08:45:18;;;;;;;12.93;8.90;;;;;;;16.47;77.68;97898.14;1736053;82;21129;-87
2021/09/27 08:48:08;;;;;;;12.25;9.15;;;;;;;16.62;77.66;97891.55;1752922;80;21014;-87
2021/09/27 08:50:41;;;;;;;11.88;7.97;;;;;;;16.75;76.87;97889.03;1767780;81;21017;-86
2021/09/27 08:53:22;;;;;;;11.30;7.30;;;;;;;16.89;76.40;97887.78;1745171;81;21043;-88
2021/09/27 08:55:51;;;;;;;13.95;8.23;;;;;;;17.03;75.94;97883.45;1734178;82;21044;-87
2021/09/27 08:58:49;;;;;;;12.23;7.87;;;;;;;17.15;75.08;97875.22;1737728;82;21003;-88
2021/09/27 09:01:24;;;;;;;8.68;7.05;;;;;;;17.26;74.44;97875.90;1737847;82;21031;-86
2021/09/27 09:04:00;;;;;;;10.63;7.60;;;;;;;17.38;74.62;97875.19;1730105;81;21011;-86
2021/09/27 09:06:38;;;;;;;8.25;6.53;;;;;;;17.51;73.92;97882.01;1765888;81;21020;-85
2021/09/27 09:09:19;;;;;;;10.88;8.20;;;;;;;17.66;74.15;97870.83;1766529;81;21051;-87
2021/09/27 09:11:59;;;;;;;11.43;7.10;;;;;;;17.80;72.61;97867.79;1765184;81;21035;-86
2021/09/27 09:14:46;;;;;;;12.00;6.72;;;;;;;17.92;70.47;97874.22;1765850;80;20964;-86
2021/09/27 09:17:24;;;;;;;11.48;6.58;;;;;;;18.02;71.92;97875.36;1745710;81;21031;-86
2021/09/27 09:19:51;;;;;;;9.20;6.53;;;;;;;18.16;69.93;97865.64;1735359;82;21408;-86
2021/09/27 09:22:22;;;;;;;11.40;6.30;;;;;;;18.28;70.87;97858.64;1734925;82;21071;-87
2021/09/27 09:24:50;;;;;;;8.43;6.17;;;;;;;18.41;69.28;97857.38;1744198;81;21004;-86
2021/09/27 09:27:16;;;;;;;8.88;5.90;;;;;;;18.58;69.16;97854.94;1765175;81;21476;-87
2021/09/27 09:29:45;;;;;;;9.68;6.40;;;;;;;18.69;69.47;97847.55;1764918;81;20980;-85
2021/09/27 09:32:26;;;;;;;9.03;6.05;;;;;;;18.78;66.28;97844.26;1765304;81;21405;-85
2021/09/27 09:35:18;;;;;;;11.88;5.97;;;;;;;18.89;68.04;97850.23;1712761;81;20976;-86
2021/09/27 09:37:52;;;;;;;10.15;5.78;;;;;;;19.02;67.47;97848.09;1705795;83;21059;-85
2021/09/27 09:40:30;;;;;;;7.72;5.70;;;;;;;19.12;65.88;97844.73;1706001;83;21016;-86
2021/09/27 09:43:09;;;;;;;7.75;5.40;;;;;;;19.24;65.71;97844.39;1705835;83;21063;-85
2021/09/27 09:45:44;;;;;;;7.45;6.00;;;;;;;19.38;65.25;97849.28;1705855;83;21087;-86
2021/09/27 09:48:22;;;;;;;9.80;5.33;;;;;;;19.49;63.63;97847.21;1705807;83;21003;-87
2021/09/27 09:50:57;;;;;;;10.32;8.50;;;;;;;19.60;62.38;97839.25;1721272;82;21458;-87
2021/09/27 09:53:34;;;;;;;9.68;7.17;;;;;;;19.74;62.95;97842.34;1724018;83;21018;-86
2021/09/27 09:56:09;;;;;;;13.60;9.85;;;;;;;19.87;62.14;97841.00;1723999;83;21038;-86
2021/09/27 09:58:51;;;;;;;9.78;5.78;;;;;;;20.00;62.56;97835.64;1740417;81;21016;-86
2021/09/27 10:01:29;;;;;;;10.35;5.35;;;;;;;20.12;61.70;97833.91;1779428;80;21005;-87
2021/09/27 10:04:13;;;;;;;8.38;5.22;;;;;;;20.28;60.34;97838.18;1763401;80;21010;-87
2021/09/27 10:06:47;;;;;;;8.63;6.43;;;;;;;20.42;59.66;97817.86;1753726;82;20958;-88
2021/09/27 10:09:35;;;;;;;;;;;;;;;20.58;61.12;97820.77;1757980;81;21018;-88
2021/09/27 10:12:06;;;;;;;11.60;5.20;;;;;;;20.75;60.21;97818.67;1776318;81;20093;-88
2021/09/27 10:14:38;;;;;;;9.00;5.35;;;;;;;20.90;57.88;97812.16;1779447;80;21048;-88
2021/09/27 10:17:29;;;;;;;7.20;5.67;;;;;;;21.04;58.61;97810.23;1779380;80;21052;-87
2021/09/27 10:20:19;;;;;;;7.00;5.00;;;;;;;21.15;58.29;97813.47;1779442;81;21492;-88
2021/09/27 10:22:56;;;;;;;7.47;4.62;;;;;;;21.24;58.18;97816.81;1767857;81;21033;-88
2021/09/27 10:25:34;;;;;;;9.45;5.30;;;;;;;21.37;57.88;97809.98;1753595;81;21495;-88
2021/09/27 10:28:04;;;;;;;8.73;5.20;;;;;;;21.51;56.53;97808.94;1753351;82;20986;-88
2021/09/27 10:30:51;;;;;;;6.33;4.62;;;;;;;21.75;56.07;97799.43;1758280;81;20985;-87
2021/09/27 10:33:26;;;;;;;5.70;4.15;;;;;;;22.41;53.29;97793.77;1780806;80;20998;-88
2021/09/27 10:36:09;;;;;;;5.45;4.20;;;;;;;23.39;53.57;97798.86;1783711;80;21432;-87
2021/09/27 10:38:45;;;;;;;7.87;4.55;;;;;;;24.42;52.82;97791.33;1784168;80;21038;-88
2021/09/27 10:41:26;;;;;;;7.70;4.42;;;;;;;25.59;51.32;97785.63;1782595;80;21017;-87
2021/09/27 10:43:57;;;;;;;7.92;4.53;;;;;;;26.60;49.91;97777.28;1783886;80;20998;-88
2021/09/27 10:46:31;;;;;;;6.90;3.83;;;;;;;27.56;41.56;97775.94;1784259;80;21049;-87
2021/09/27 10:48:58;;;;;;;;;;;;;;;28.40;43.59;97764.50;1780334;80;20994;-87
2021/09/27 10:51:30;;;;;;;4.25;3.40;;;;;;;29.11;41.27;97771.80;1753298;82;20431;-87
2021/09/27 10:54:05;;;;;;;4.70;3.75;;;;;;;29.72;38.24;97767.03;1753296;82;21037;-87
2021/09/27 10:56:40;;;;;;;4.87;3.87;;;;;;;30.30;39.41;97762.74;1753458;81;21029;-86
2021/09/27 10:59:13;;;;;;;4.20;3.75;;;;;;;31.03;38.34;97758.41;1771980;80;20990;-86
2021/09/27 11:02:13;;;;;;;4.53;4.12;;;;;;;31.74;37.81;97758.66;1784299;80;21368;-86
2021/09/27 11:04:44;;;;;;;4.40;3.98;;;;;;;32.36;36.39;97757.10;1784172;80;20998;-87
2021/09/27 11:07:22;;;;;;;4.40;3.80;;;;;;;32.79;33.65;97753.61;1779275;80;20973;-85
2021/09/27 11:09:48;;;;;;;5.17;4.08;;;;;;;33.21;32.88;97748.85;1753290;82;21017;-86
2021/09/27 11:12:36;;;;;;;4.42;4.03;;;;;;;33.31;31.23;97752.64;1753456;82;21005;-85
2021/09/27 11:15:15;;;;;;;7.55;4.37;;;;;;;33.50;31.58;97746.98;1751649;82;21018;-86
2021/09/27 11:17:49;;;;;;;4.72;4.28;;;;;;;33.69;31.15;97748.73;1749311;82;21072;-85
2021/09/27 11:20:24;;;;;;;5.58;4.12;;;;;;;33.92;29.54;97742.95;1771220;81;21072;-87
2021/09/27 11:23:01;;;;;;;4.83;4.33;;;;;;;33.88;29.11;97736.19;1777272;80;21032;-87
2021/09/27 11:25:38;;;;;;;4.92;3.98;;;;;;;34.09;28.87;97742.12;1779345;81;21032;-87
2021/09/27 11:28:29;;;;;;;5.50;4.17;;;;;;;34.16;29.31;97742.70;1775209;80;21503;-84
2021/09/27 11:31:30;;;;;;;5.95;4.03;;;;;;;34.30;29.69;97740.86;1756622;81;21014;-86
2021/09/27 11:34:31;;;;;;;6.47;4.30;;;;;;;34.30;27.58;97733.47;1757577;81;21008;-85
2021/09/27 11:37:21;;;;;;;4.87;3.80;;;;;;;34.37;27.91;97738.97;1779393;80;21047;-86
2021/09/27 11:39:56;;;;;;;7.95;4.10;;;;;;;34.43;28.67;97736.78;1738056;82;20980;-86
2021/09/27 11:42:31;;;;;;;7.47;4.80;;;;;;;34.67;29.06;97734.57;1711065;83;21034;-86
2021/09/27 11:45:16;;;;;;;10.53;4.22;;;;;;;34.80;26.74;97735.13;1723557;83;21013;-86
2021/09/27 11:48:03;;;;;;;6.58;4.90;;;;;;;35.00;28.00;97728.80;1717046;83;21033;-86
2021/09/27 11:50:47;;;;;;;6.17;5.12;;;;;;;35.21;27.39;97730.55;1758053;81;21076;-85
2021/09/27 11:53:27;;;;;;;7.92;5.15;;;;;;;34.94;27.22;97728.23;1778211;80;21028;-86
2021/09/27 11:56:18;;;;;;;5.40;4.47;;;;;;;34.30;27.81;97726.59;1779317;80;21025;-86
2021/09/27 11:58:53;;;;;;;5.20;4.35;;;;;;;33.30;28.48;97722.13;1765315;80;21438;-85
2021/09/27 12:01:47;;;;;;;5.58;4.58;;;;;;;32.19;29.00;97723.56;1753367;81;21010;-86
2021/09/27 12:04:37;;;;;;;4.45;4.00;;;;;;;31.43;30.50;97730.88;1723628;83;21427;-86
2021/09/27 12:07:09;;;;;;;6.28;4.58;;;;;;;30.70;31.47;97718.95;1723626;83;21002;-86
2021/09/27 12:09:51;;;;;;;5.97;4.70;;;;;;;30.10;31.96;97712.59;1735225;81;21021;-86
2021/09/27 12:12:28;;;;;;;5.90;4.45;;;;;;;29.55;32.97;97709.70;1752129;82;21057;-86
2021/09/27 12:15:00;;;;;;;11.85;4.92;;;;;;;29.00;32.97;97710.77;1752560;79;20997;-85
2021/09/27 12:17:35;;;;;;;7.05;4.40;;;;;;;28.60;34.14;97707.80;1753210;82;21132;-86
2021/09/27 12:20:16;;;;;;;5.65;4.40;;;;;;;28.40;34.77;97708.10;1753440;81;21052;-86
2021/09/27 12:22:48;;;;;;;9.13;4.60;;;;;;;28.12;35.07;97702.04;1753407;82;21443;-87
2021/09/27 12:25:29;;;;;;;5.00;4.42;;;;;;;27.78;35.49;97710.59;1754303;81;21049;-86
2021/09/27 12:28:05;;;;;;;5.45;4.10;;;;;;;27.62;36.19;97710.86;1774608;80;20990;-85
2021/09/27 12:30:36;;;;;;;7.05;4.12;;;;;;;27.57;36.48;97709.59;1752991;82;21064;-86